Time;durP1;ratioP1;P1;durP2;ratioP2;P2;SDS_P1;SDS_P2;PMS_P1;PMS_P2;Temp;Humidity;BMP_temperature;BMP_pressure;BME280_temperature;BME280_humidity;BME280_pressure;Samples;Min_cycle;Max_cycle;Signal;HPM_P1;HPM_P2
2023/01/30 00:01:25;;;;;;;25.75;13.85;;;;;;;;;;10137027;29;20442;-77
2023/01/30 00:06:30;;;;;;;25.33;12.45;;;;;;;;;;10153934;29;20070;-78
2023/01/30 00:11:33;;;;;;;21.67;11.43;;;;;;;;;;10153462;29;20092;-79
2023/01/30 00:16:38;;;;;;;26.15;13.40;;;;;;;;;;10136315;29;20044;-78
2023/01/30 00:21:45;;;;;;;26.38;13.73;;;;;;;;;;10152955;29;20052;-78
2023/01/30 00:26:48;;;;;;;31.23;17.17;;;;;;;;;;10140706;29;20044;-78
2023/01/30 00:31:57;;;;;;;24.40;13.40;;;;;;;;;;10152276;29;20328;-79
2023/01/30 00:37:01;;;;;;;22.88;12.18;;;;;;;;;;10150498;29;20048;-78
2023/01/30 00:47:33;;;;;;;24.67;13.30;;;;;;;;;;10136375;29;20044;-78
2023/01/30 00:52:37;;;;;;;20.48;10.43;;;;;;;;;;10152872;29;20044;-78
2023/01/30 00:57:43;;;;;;;22.77;12.10;;;;;;;;;;10151205;29;20666;-78
2023/01/30 01:02:50;;;;;;;21.58;12.70;;;;;;;;;;10152072;29;20037;-79
2023/01/30 01:07:56;;;;;;;20.25;11.25;;;;;;;;;;10135234;29;20052;-79
2023/01/30 01:13:00;;;;;;;19.08;10.73;;;;;;;;;;10134310;29;20048;-78
2023/01/30 01:18:05;;;;;;;22.52;12.38;;;;;;;;;;10151315;29;20088;-80
2023/01/30 01:23:10;;;;;;;20.13;10.63;;;;;;;;;;10150942;29;20082;-78
2023/01/30 01:28:14;;;;;;;21.27;11.97;;;;;;;;;;10141347;29;20063;-78
2023/01/30 01:33:21;;;;;;;20.70;10.63;;;;;;;;;;10132842;29;20048;-78
2023/01/30 01:38:33;;;;;;;17.35;9.93;;;;;;;;;;10134157;29;20115;-78
2023/01/30 01:43:39;;;;;;;23.27;11.48;;;;;;;;;;10150265;29;20041;-78
2023/01/30 01:48:49;;;;;;;23.42;12.73;;;;;;;;;;10134092;29;20048;-78
2023/01/30 01:53:58;;;;;;;26.52;13.38;;;;;;;;;;10148660;29;20040;-78
2023/01/30 01:59:05;;;;;;;19.70;10.27;;;;;;;;;;10152902;29;20522;-78
2023/01/30 02:05:00;;;;;;;19.42;11.70;;;;;;;;;;10142097;29;20092;-78
2023/01/30 02:09:36;;;;;;;23.17;11.38;;;;;;;;;;10145754;29;20111;-78
2023/01/30 02:14:41;;;;;;;22.92;12.07;;;;;;;;;;10149282;29;20514;-77
2023/01/30 02:19:52;;;;;;;18.40;10.43;;;;;;;;;;10131850;29;20084;-78
2023/01/30 02:25:21;;;;;;;17.77;10.13;;;;;;;;;;10148541;29;20223;-78
2023/01/30 02:30:57;;;;;;;16.58;9.43;;;;;;;;;;10131667;29;20889;-78
2023/01/30 02:36:11;;;;;;;16.52;9.25;;;;;;;;;;10132080;29;20461;-78
2023/01/30 02:41:24;;;;;;;19.75;10.68;;;;;;;;;;10149645;29;20124;-77
2023/01/30 02:46:37;;;;;;;20.63;11.02;;;;;;;;;;10131465;29;20091;-77
2023/01/30 02:51:46;;;;;;;17.55;10.57;;;;;;;;;;10148463;29;20036;-78
2023/01/30 02:56:52;;;;;;;19.65;10.85;;;;;;;;;;10126272;29;20126;-77
2023/01/30 03:02:35;;;;;;;20.13;10.88;;;;;;;;;;10146778;29;20459;-77
2023/01/30 03:07:45;;;;;;;22.17;11.73;;;;;;;;;;10106992;29;20139;-78
2023/01/30 03:12:53;;;;;;;18.50;11.27;;;;;;;;;;10138498;29;20653;-77
2023/01/30 03:17:59;;;;;;;21.23;12.32;;;;;;;;;;10137529;29;20040;-78
2023/01/30 03:23:03;;;;;;;22.63;12.43;;;;;;;;;;10137869;29;20044;-77
2023/01/30 03:28:08;;;;;;;18.42;10.02;;;;;;;;;;10135825;29;20139;-78
2023/01/30 03:33:13;;;;;;;20.80;10.27;;;;;;;;;;10154319;29;20051;-77
2023/01/30 03:38:22;;;;;;;23.73;12.63;;;;;;;;;;10137796;29;20075;-78
2023/01/30 03:43:26;;;;;;;24.95;13.93;;;;;;;;;;10136276;29;20056;-77
2023/01/30 03:48:31;;;;;;;25.27;13.52;;;;;;;;;;10141282;29;20052;-77
2023/01/30 03:53:35;;;;;;;24.30;13.70;;;;;;;;;;10156420;29;20047;-77
2023/01/30 03:58:39;;;;;;;19.90;11.40;;;;;;;;;;10136513;29;20052;-77
2023/01/30 04:03:53;;;;;;;25.25;14.18;;;;;;;;;;10141693;29;20040;-77
2023/01/30 04:08:57;;;;;;;26.13;14.70;;;;;;;;;;10136679;29;20036;-78
2023/01/30 04:14:13;;;;;;;23.45;14.15;;;;;;;;;;10135789;29;20584;-78
2023/01/30 04:19:38;;;;;;;27.15;14.00;;;;;;;;;;10151221;29;20036;-77
2023/01/30 04:24:41;;;;;;;27.30;15.23;;;;;;;;;;10135750;29;20290;-78
2023/01/30 04:29:45;;;;;;;26.20;13.95;;;;;;;;;;10151837;29;20131;-78
2023/01/30 04:34:50;;;;;;;23.92;13.35;;;;;;;;;;10136636;29;20063;-78
2023/01/30 04:39:54;;;;;;;27.17;15.48;;;;;;;;;;10152760;29;20040;-77
2023/01/30 04:44:58;;;;;;;21.02;12.30;;;;;;;;;;10134828;29;20103;-78
2023/01/30 04:50:06;;;;;;;24.90;12.97;;;;;;;;;;10135150;29;20044;-78
2023/01/30 04:55:10;;;;;;;;;;;;;;;;;;10134957;29;20103;-77
2023/01/30 05:00:14;;;;;;;27.63;14.05;;;;;;;;;;10134143;29;19923;-77
2023/01/30 05:05:28;;;;;;;19.73;11.55;;;;;;;;;;10132652;29;20055;-77
2023/01/30 05:10:32;;;;;;;17.23;9.97;;;;;;;;;;10151991;29;20608;-78
2023/01/30 05:15:35;;;;;;;18.17;10.43;;;;;;;;;;10154168;29;20568;-77
2023/01/30 05:20:40;;;;;;;15.75;9.40;;;;;;;;;;10151138;29;20083;-78
2023/01/30 05:25:44;;;;;;;16.88;10.60;;;;;;;;;;10150998;29;20072;-78
2023/01/30 05:30:48;;;;;;;17.67;10.35;;;;;;;;;;10150562;29;20119;-78
2023/01/30 05:35:53;;;;;;;14.07;8.48;;;;;;;;;;10133920;29;20430;-78
2023/01/30 05:41:00;;;;;;;18.08;10.18;;;;;;;;;;10150559;29;20202;-78
2023/01/30 05:46:05;;;;;;;15.90;9.27;;;;;;;;;;10150779;29;20079;-78
2023/01/30 05:51:16;;;;;;;;;;;;;;;;;;10156844;29;20447;-77
2023/01/30 05:56:20;;;;;;;13.68;8.73;;;;;;;;;;10152136;29;19930;-78
2023/01/30 06:01:24;;;;;;;10.73;6.65;;;;;;;;;;10150919;29;20545;-78
2023/01/30 06:06:29;;;;;;;9.02;5.93;;;;;;;;;;10152271;29;20484;-78
2023/01/30 06:11:32;;;;;;;8.57;5.97;;;;;;;;;;10150362;29;20510;-78
2023/01/30 06:16:36;;;;;;;11.85;7.32;;;;;;;;;;10134656;29;20047;-78
2023/01/30 06:21:41;;;;;;;6.82;4.18;;;;;;;;;;10150114;29;20048;-78
2023/01/30 06:32:32;;;;;;;8.60;5.80;;;;;;;;;;10140311;29;20045;-79
2023/01/30 06:37:47;;;;;;;8.43;5.97;;;;;;;;;;10132412;29;20127;-79
2023/01/30 06:42:56;;;;;;;6.95;4.55;;;;;;;;;;10157405;29;20043;-78
2023/01/30 06:48:00;;;;;;;8.85;5.32;;;;;;;;;;10140687;29;20046;-78
2023/01/30 06:53:07;;;;;;;9.05;5.40;;;;;;;;;;10139505;29;20521;-80
2023/01/30 06:58:12;;;;;;;6.25;4.20;;;;;;;;;;10148448;29;20387;-78
2023/01/30 07:03:17;;;;;;;8.43;5.68;;;;;;;;;;10155794;29;20044;-78
2023/01/30 07:08:23;;;;;;;10.30;5.88;;;;;;;;;;10153720;29;20051;-78
2023/01/30 07:13:27;;;;;;;6.30;3.80;;;;;;;;;;10139942;29;20044;-79
2023/01/30 07:18:30;;;;;;;6.82;4.65;;;;;;;;;;10155422;29;20512;-77
2023/01/30 07:23:35;;;;;;;6.35;3.97;;;;;;;;;;10248226;23;20127;-83
2023/01/30 07:28:38;;;;;;;6.90;4.40;;;;;;;;;;10181198;29;21703;-85
2023/01/30 07:33:42;;;;;;;6.22;4.22;;;;;;;;;;10182645;29;20135;-84
2023/01/30 07:38:48;;;;;;;5.72;3.92;;;;;;;;;;10182609;29;20099;-85
2023/01/30 07:43:52;;;;;;;4.32;3.38;;;;;;;;;;10170840;29;20054;-84
2023/01/30 07:48:55;;;;;;;4.95;3.58;;;;;;;;;;10151385;29;20048;-85
2023/01/30 07:54:02;;;;;;;6.55;3.83;;;;;;;;;;10163807;29;20103;-84
2023/01/30 07:59:06;;;;;;;5.50;4.10;;;;;;;;;;10158785;29;20444;-85
2023/01/30 08:04:09;;;;;;;3.58;3.00;;;;;;;;;;10150725;29;20044;-85
2023/01/30 08:09:14;;;;;;;4.55;3.08;;;;;;;;;;10181835;29;20058;-86
2023/01/30 08:14:17;;;;;;;3.78;2.78;;;;;;;;;;10171205;29;20689;-85
2023/01/30 08:19:24;;;;;;;3.30;2.83;;;;;;;;;;10167140;29;20052;-84
2023/01/30 08:24:30;;;;;;;3.97;2.97;;;;;;;;;;10200240;29;20048;-84
2023/01/30 08:29:36;;;;;;;4.72;3.42;;;;;;;;;;10155765;29;20469;-83
2023/01/30 08:34:41;;;;;;;4.20;2.90;;;;;;;;;;10178846;29;20044;-84
2023/01/30 08:39:47;;;;;;;4.20;2.78;;;;;;;;;;10156917;29;20112;-84
2023/01/30 08:44:50;;;;;;;2.30;2.10;;;;;;;;;;10196009;29;20036;-84
2023/01/30 08:49:54;;;;;;;2.75;2.30;;;;;;;;;;10194737;29;20880;-84
2023/01/30 08:54:59;;;;;;;3.05;2.28;;;;;;;;;;10201783;29;20060;-84
2023/01/30 09:00:03;;;;;;;2.92;2.30;;;;;;;;;;10192904;29;20039;-84
2023/01/30 09:05:09;;;;;;;1.98;1.77;;;;;;;;;;10167907;29;20108;-83
2023/01/30 09:10:15;;;;;;;2.10;1.90;;;;;;;;;;10196309;29;20076;-84
2023/01/30 09:15:18;;;;;;;2.92;2.25;;;;;;;;;;10176433;29;20083;-84
2023/01/30 09:20:22;;;;;;;1.73;1.60;;;;;;;;;;10157647;29;20052;-84
2023/01/30 09:25:27;;;;;;;1.75;1.52;;;;;;;;;;10176311;29;20059;-83
2023/01/30 09:30:30;;;;;;;1.50;1.40;;;;;;;;;;10198828;29;20040;-83
2023/01/30 09:35:33;;;;;;;1.90;1.40;;;;;;;;;;10165040;29;20048;-83
2023/01/30 09:40:50;;;;;;;2.00;1.38;;;;;;;;;;10162874;29;20564;-84
2023/01/30 09:46:05;;;;;;;1.40;1.30;;;;;;;;;;10158915;29;20048;-84
2023/01/30 09:51:30;;;;;;;1.92;1.48;;;;;;;;;;10176015;29;20128;-83
2023/01/30 09:56:35;;;;;;;1.63;1.37;;;;;;;;;;10181049;29;20043;-83
2023/01/30 10:01:48;;;;;;;1.70;1.30;;;;;;;;;;10143478;29;20518;-83
2023/01/30 10:06:59;;;;;;;2.05;1.50;;;;;;;;;;10166052;29;20059;-83
2023/01/30 10:12:22;;;;;;;2.13;1.63;;;;;;;;;;10141031;29;20421;-83
2023/01/30 10:17:36;;;;;;;2.17;1.70;;;;;;;;;;10139415;29;20059;-83
2023/01/30 10:22:49;;;;;;;2.78;2.08;;;;;;;;;;10173656;29;20060;-83
2023/01/30 10:28:00;;;;;;;2.08;1.65;;;;;;;;;;10177158;29;20056;-84
2023/01/30 10:33:08;;;;;;;2.38;1.92;;;;;;;;;;10164972;29;20044;-83
2023/01/30 10:38:20;;;;;;;1.90;1.70;;;;;;;;;;10150425;29;20052;-84
2023/01/30 10:43:29;;;;;;;1.77;1.40;;;;;;;;;;10133810;29;20048;-84
2023/01/30 10:48:48;;;;;;;2.00;1.60;;;;;;;;;;10118811;29;20048;-84
2023/01/30 10:53:57;;;;;;;3.58;1.90;;;;;;;;;;10118624;29;20048;-83
2023/01/30 10:59:13;;;;;;;2.58;2.03;;;;;;;;;;10119926;29;20510;-83
2023/01/30 11:04:21;;;;;;;;;;;;;;;;;;10126009;29;20044;-83
2023/01/30 11:09:39;;;;;;;3.05;1.80;;;;;;;;;;10151455;29;19958;-83
2023/01/30 11:14:58;;;;;;;4.50;2.13;;;;;;;;;;10125628;29;20044;-83
2023/01/30 11:20:08;;;;;;;2.13;1.55;;;;;;;;;;10142454;29;20060;-82
2023/01/30 11:25:16;;;;;;;2.50;1.52;;;;;;;;;;10154361;29;20094;-83
2023/01/30 11:30:26;;;;;;;1.98;1.55;;;;;;;;;;10132808;29;20413;-83
2023/01/30 11:35:31;;;;;;;3.28;1.75;;;;;;;;;;10148131;29;20527;-83
2023/01/30 11:40:38;;;;;;;2.20;1.50;;;;;;;;;;10130070;29;20048;-82
2023/01/30 11:45:47;;;;;;;2.38;1.58;;;;;;;;;;10136723;29;20048;-82
2023/01/30 11:51:01;;;;;;;2.45;1.52;;;;;;;;;;10125854;29;20440;-82
2023/01/30 11:56:08;;;;;;;3.45;1.60;;;;;;;;;;10132999;29;20044;-80
2023/01/30 12:01:17;;;;;;;3.35;1.73;;;;;;;;;;10134652;29;20041;-82
2023/01/30 12:06:30;;;;;;;3.83;1.80;;;;;;;;;;10124851;29;20459;-81
2023/01/30 12:11:43;;;;;;;3.65;1.80;;;;;;;;;;10128313;29;20047;-82
2023/01/30 12:17:00;;;;;;;3.60;1.77;;;;;;;;;;10128958;29;20410;-82
2023/01/30 12:22:13;;;;;;;4.30;1.67;;;;;;;;;;10132552;29;20080;-82
2023/01/30 12:27:22;;;;;;;4.82;2.08;;;;;;;;;;10160807;29;20087;-83
2023/01/30 12:32:29;;;;;;;8.25;2.22;;;;;;;;;;10156811;29;20052;-83
2023/01/30 12:37:43;;;;;;;5.97;1.88;;;;;;;;;;10162370;29;20048;-84
2023/01/30 12:43:06;;;;;;;5.97;2.28;;;;;;;;;;10147843;29;20036;-83
2023/01/30 12:48:31;;;;;;;5.95;2.45;;;;;;;;;;10140740;29;20044;-84
2023/01/30 12:53:52;;;;;;;4.70;2.20;;;;;;;;;;10164081;29;20040;-83
2023/01/30 12:59:01;;;;;;;5.68;1.80;;;;;;;;;;10166633;29;20405;-84
2023/01/30 13:04:14;;;;;;;3.55;1.60;;;;;;;;;;10169395;29;20055;-84
2023/01/30 13:09:34;;;;;;;3.08;1.58;;;;;;;;;;10180132;29;20649;-83
2023/01/30 13:14:41;;;;;;;4.60;1.67;;;;;;;;;;10176381;29;20387;-84
2023/01/30 13:19:52;;;;;;;7.45;1.90;;;;;;;;;;10145408;29;20302;-83
2023/01/30 13:25:01;;;;;;;4.18;2.05;;;;;;;;;;10140973;29;20802;-84
2023/01/30 13:30:09;;;;;;;4.85;2.03;;;;;;;;;;10149825;29;20126;-85
2023/01/30 13:35:18;;;;;;;3.30;1.92;;;;;;;;;;10145440;29;20076;-83
2023/01/30 13:40:26;;;;;;;5.60;2.28;;;;;;;;;;10139064;23;20058;-86
2023/01/30 13:45:32;;;;;;;4.10;2.00;;;;;;;;;;10139961;29;20072;-87
2023/01/30 13:50:49;;;;;;;4.28;1.80;;;;;;;;;;10126511;29;20044;-86
2023/01/30 13:55:58;;;;;;;5.95;1.55;;;;;;;;;;10127136;29;20047;-87
2023/01/30 14:01:04;;;;;;;4.20;1.88;;;;;;;;;;10110256;29;20041;-87
2023/01/30 14:06:24;;;;;;;4.30;2.15;;;;;;;;;;10104528;29;20063;-87
2023/01/30 14:11:35;;;;;;;3.00;1.77;;;;;;;;;;10101508;29;20059;-87
2023/01/30 14:16:44;;;;;;;3.55;1.55;;;;;;;;;;10100704;29;20044;-88
2023/01/30 14:22:00;;;;;;;3.30;1.20;;;;;;;;;;10128924;29;20079;-88
2023/01/30 14:27:21;;;;;;;8.33;2.30;;;;;;;;;;10113272;29;20124;-88
2023/01/30 14:33:00;;;;;;;4.57;1.77;;;;;;;;;;10119181;29;20285;-88
2023/01/30 14:38:15;;;;;;;9.35;2.13;;;;;;;;;;10145476;29;20052;-88
2023/01/30 14:43:49;;;;;;;5.10;1.90;;;;;;;;;;10117906;29;20052;-86
2023/01/30 14:49:03;;;;;;;4.97;1.75;;;;;;;;;;10137980;29;20120;-87
2023/01/30 14:54:21;;;;;;;9.27;2.25;;;;;;;;;;10151332;29;20059;-87
2023/01/30 14:59:33;;;;;;;10.30;1.88;;;;;;;;;;10139946;29;20048;-87
2023/01/30 15:04:44;;;;;;;9.18;2.72;;;;;;;;;;10145853;29;20680;-87
2023/01/30 15:09:55;;;;;;;9.00;2.28;;;;;;;;;;10139889;29;20044;-87
2023/01/30 15:15:08;;;;;;;6.60;1.90;;;;;;;;;;10157953;29;20118;-87
2023/01/30 15:20:43;;;;;;;9.43;2.10;;;;;;;;;;10137098;29;20044;-88
2023/01/30 15:26:09;;;;;;;6.13;1.80;;;;;;;;;;10162073;29;20048;-88
2023/01/30 15:31:16;;;;;;;8.23;2.35;;;;;;;;;;10154269;29;20097;-88
2023/01/30 15:36:26;;;;;;;6.70;1.50;;;;;;;;;;10147149;29;20701;-88
2023/01/30 15:41:36;;;;;;;8.35;2.88;;;;;;;;;;10142657;29;20155;-88
2023/01/30 15:46:48;;;;;;;12.63;3.75;;;;;;;;;;10156911;29;20036;-88
2023/01/30 15:51:53;;;;;;;16.30;4.18;;;;;;;;;;10144951;29;20510;-88
2023/01/30 15:56:59;;;;;;;8.85;3.55;;;;;;;;;;10134630;29;20717;-88
2023/01/30 16:02:06;;;;;;;8.52;3.13;;;;;;;;;;10168835;29;20141;-89
2023/01/30 16:07:23;;;;;;;8.98;2.60;;;;;;;;;;10154239;29;20051;-88
2023/01/30 16:12:29;;;;;;;14.27;3.65;;;;;;;;;;10158381;29;20132;-88
2023/01/30 16:17:33;;;;;;;5.40;2.00;;;;;;;;;;10177317;29;20120;-88
2023/01/30 16:22:37;;;;;;;8.35;2.20;;;;;;;;;;10175678;29;20067;-88
2023/01/30 16:27:47;;;;;;;8.18;2.22;;;;;;;;;;10168055;29;20091;-88
2023/01/30 16:32:53;;;;;;;7.40;2.30;;;;;;;;;;10165765;29;20056;-88
2023/01/30 16:37:58;;;;;;;;;;;;;;;;;;10160430;29;20040;-88
2023/01/30 16:43:16;;;;;;;7.22;2.30;;;;;;;;;;10158553;29;19923;-87
2023/01/30 16:48:30;;;;;;;4.50;1.75;;;;;;;;;;10150901;29;20059;-88
2023/01/30 16:53:34;;;;;;;6.38;2.30;;;;;;;;;;10175710;29;20051;-88
2023/01/30 16:58:39;;;;;;;7.88;2.40;;;;;;;;;;10157635;29;20048;-88
2023/01/30 17:03:50;;;;;;;7.90;2.60;;;;;;;;;;10151819;29;20126;-88
2023/01/30 17:08:56;;;;;;;5.50;2.20;;;;;;;;;;10126307;29;20059;-88
2023/01/30 17:14:21;;;;;;;8.05;1.95;;;;;;;;;;10158551;29;20040;-88
2023/01/30 17:19:25;;;;;;;9.88;2.45;;;;;;;;;;10170847;29;20096;-88
2023/01/30 17:24:28;;;;;;;10.25;3.00;;;;;;;;;;10141020;29;20055;-88
2023/01/30 17:29:35;;;;;;;7.75;2.92;;;;;;;;;;10155626;29;20051;-87
2023/01/30 17:34:45;;;;;;;11.35;2.80;;;;;;;;;;10160324;29;20466;-88
2023/01/30 17:39:49;;;;;;;7.25;2.50;;;;;;;;;;10134443;29;20048;-88
2023/01/30 17:44:55;;;;;;;7.35;2.17;;;;;;;;;;10137792;29;20418;-88
2023/01/30 17:49:59;;;;;;;7.50;2.50;;;;;;;;;;10149719;29;20052;-88
2023/01/30 17:55:02;;;;;;;8.90;2.80;;;;;;;;;;10157952;29;20087;-88
2023/01/30 18:00:14;;;;;;;7.97;3.88;;;;;;;;;;10156327;29;20135;-88
2023/01/30 18:05:17;;;;;;;9.93;3.05;;;;;;;;;;10165970;29;20099;-89
2023/01/30 18:10:21;;;;;;;7.78;3.03;;;;;;;;;;10131926;29;20059;-88
2023/01/30 18:15:26;;;;;;;14.35;4.38;;;;;;;;;;10117937;29;20128;-88
2023/01/30 18:20:32;;;;;;;6.10;2.50;;;;;;;;;;10118361;29;20566;-88
2023/01/30 18:25:35;;;;;;;14.85;3.85;;;;;;;;;;10116388;29;20048;-89
2023/01/30 18:30:40;;;;;;;9.13;2.10;;;;;;;;;;10136760;29;20055;-87
2023/01/30 18:35:44;;;;;;;10.02;3.20;;;;;;;;;;10149641;29;20107;-88
2023/01/30 18:40:48;;;;;;;13.63;3.95;;;;;;;;;;10155049;29;20048;-89
2023/01/30 18:46:04;;;;;;;7.47;3.00;;;;;;;;;;10154900;29;20044;-87
2023/01/30 18:51:10;;;;;;;6.97;2.27;;;;;;;;;;10162146;29;20528;-88
2023/01/30 18:56:14;;;;;;;;;;;;;;;;;;10127094;29;20041;-88
2023/01/30 19:01:22;;;;;;;9.10;2.80;;;;;;;;;;10144306;29;19930;-87
2023/01/30 19:06:26;;;;;;;12.18;2.65;;;;;;;;;;10144464;29;20055;-88
2023/01/30 19:16:53;;;;;;;6.57;2.00;;;;;;;;;;10129651;29;20060;-89
2023/01/30 19:21:57;;;;;;;8.17;2.40;;;;;;;;;;10124182;29;20072;-87
2023/01/30 19:27:06;;;;;;;10.98;3.33;;;;;;;;;;10130839;29;20529;-87
2023/01/30 19:32:18;;;;;;;10.30;3.13;;;;;;;;;;10130322;29;20045;-87
2023/01/30 19:37:22;;;;;;;10.13;2.75;;;;;;;;;;10132129;29;20112;-88
2023/01/30 19:42:26;;;;;;;7.07;2.38;;;;;;;;;;10120389;29;20048;-87
2023/01/30 19:47:31;;;;;;;9.43;3.05;;;;;;;;;;10121789;29;20056;-88
2023/01/30 19:52:35;;;;;;;10.18;2.83;;;;;;;;;;10141653;29;20064;-87
2023/01/30 19:57:39;;;;;;;10.18;2.67;;;;;;;;;;10155199;29;20044;-87
2023/01/30 20:02:45;;;;;;;10.27;2.58;;;;;;;;;;10157239;29;20044;-88
2023/01/30 20:07:49;;;;;;;8.27;2.50;;;;;;;;;;10126760;29;20177;-88
2023/01/30 20:12:52;;;;;;;10.38;2.80;;;;;;;;;;10150698;29;20059;-88
2023/01/30 20:17:57;;;;;;;7.20;2.72;;;;;;;;;;10133784;29;20040;-87
2023/01/30 20:23:01;;;;;;;9.25;2.53;;;;;;;;;;10127102;29;20040;-87
2023/01/30 20:28:05;;;;;;;5.70;1.60;;;;;;;;;;10146968;29;20052;-88
2023/01/30 20:33:11;;;;;;;6.43;2.15;;;;;;;;;;10120314;29;20059;-88
2023/01/30 20:38:14;;;;;;;10.52;2.60;;;;;;;;;;10145398;29;20060;-88
2023/01/30 20:43:18;;;;;;;6.03;1.92;;;;;;;;;;10121098;29;20052;-87
2023/01/30 20:48:23;;;;;;;5.15;1.75;;;;;;;;;;10153037;29;20048;-89
2023/01/30 20:53:27;;;;;;;6.82;1.95;;;;;;;;;;10159031;29;20126;-88
2023/01/30 20:58:31;;;;;;;8.90;2.92;;;;;;;;;;10156957;29;20052;-87
2023/01/30 21:03:37;;;;;;;5.85;1.90;;;;;;;;;;10159836;29;20052;-88
2023/01/30 21:08:42;;;;;;;6.80;1.63;;;;;;;;;;10149256;29;20061;-88
2023/01/30 21:13:46;;;;;;;6.05;1.45;;;;;;;;;;10164479;29;20465;-88
2023/01/30 21:18:54;;;;;;;6.82;1.92;;;;;;;;;;10150896;29;20513;-88
2023/01/30 21:24:01;;;;;;;8.38;2.30;;;;;;;;;;10135080;29;20041;-88
2023/01/30 21:29:07;;;;;;;4.65;1.48;;;;;;;;;;10134721;29;20291;-88
2023/01/30 21:34:12;;;;;;;3.75;1.50;;;;;;;;;;10135153;29;20104;-89
2023/01/30 21:44:38;;;;;;;6.20;1.88;;;;;;;;;;10122501;29;20060;-89
2023/01/30 21:49:44;;;;;;;5.85;1.60;;;;;;;;;;10148667;29;20408;-89
2023/01/30 21:54:48;;;;;;;;;;;;;;;;;;10135842;29;20056;-88
2023/01/30 21:59:51;;;;;;;10.48;4.53;;;;;;;;;;10134129;29;19982;-88
2023/01/30 22:04:57;;;;;;;12.68;3.03;;;;;;;;;;10148770;29;20052;-89
2023/01/30 22:10:01;;;;;;;9.13;2.70;;;;;;;;;;10156443;29;20099;-88
2023/01/30 22:15:08;;;;;;;9.05;2.30;;;;;;;;;;10155218;29;20060;-89
2023/01/30 22:20:15;;;;;;;11.43;2.85;;;;;;;;;;10124733;29;20050;-88
2023/01/30 22:25:18;;;;;;;10.10;3.45;;;;;;;;;;10146693;29;20131;-89
2023/01/30 22:30:23;;;;;;;10.63;2.47;;;;;;;;;;10136538;29;20058;-89
2023/01/30 22:35:28;;;;;;;7.18;2.40;;;;;;;;;;10119139;29;20089;-88
2023/01/30 22:40:32;;;;;;;11.40;3.47;;;;;;;;;;10121800;29;20086;-88
2023/01/30 22:45:36;;;;;;;10.57;2.50;;;;;;;;;;10135141;29;20116;-89
2023/01/30 22:50:41;;;;;;;9.45;2.15;;;;;;;;;;10170080;29;20052;-88
2023/01/30 22:55:45;;;;;;;9.05;3.00;;;;;;;;;;10122252;29;20052;-88
2023/01/30 23:00:49;;;;;;;8.25;2.70;;;;;;;;;;10153729;29;20100;-88
2023/01/30 23:06:02;;;;;;;10.93;3.05;;;;;;;;;;10170632;29;20115;-88
2023/01/30 23:11:09;;;;;;;8.18;3.33;;;;;;;;;;10153966;29;20044;-89
2023/01/30 23:16:13;;;;;;;9.27;3.90;;;;;;;;;;10154316;29;20048;-88
2023/01/30 23:21:19;;;;;;;10.63;3.28;;;;;;;;;;10175281;29;20048;-89
2023/01/30 23:26:25;;;;;;;9.63;3.90;;;;;;;;;;10129744;29;20075;-88
2023/01/30 23:31:30;;;;;;;7.83;3.23;;;;;;;;;;10126479;29;20044;-89
2023/01/30 23:36:35;;;;;;;15.20;4.50;;;;;;;;;;10130041;29;20067;-88
2023/01/30 23:41:39;;;;;;;11.07;3.60;;;;;;;;;;10150308;29;20514;-89
2023/01/30 23:46:43;;;;;;;13.60;3.83;;;;;;;;;;10148090;29;20059;-88
2023/01/30 23:51:48;;;;;;;13.98;3.75;;;;;;;;;;10125167;29;20048;-89
2023/01/30 23:56:55;;;;;;;12.15;2.60;;;;;;;;;;10176138;29;20565;-88
